createdAt,value
2019-04-11T00:01:14.215Z,12.07
2019-04-11T00:03:46.093Z,12.11
2019-04-11T00:06:19.347Z,12.14
2019-04-11T00:08:52.323Z,12.14
2019-04-11T00:11:24.321Z,12.17
2019-04-11T00:13:56.093Z,12.16
2019-04-11T00:16:28.956Z,12.18
2019-04-11T00:19:00.621Z,12.19
2019-04-11T00:21:32.994Z,12.18
2019-04-11T00:24:05.008Z,12.17
2019-04-11T00:26:38.194Z,12.17
2019-04-11T00:29:10.337Z,12.16
2019-04-11T00:31:43.086Z,12.14
2019-04-11T00:34:15.119Z,12.12
2019-04-11T00:36:46.832Z,12.18
2019-04-11T00:39:19.493Z,12.19
2019-04-11T00:41:52.296Z,12.18
2019-04-11T00:44:25.093Z,12.20
2019-04-11T00:46:56.959Z,12.20
2019-04-11T00:49:28.810Z,12.18
2019-04-11T00:52:00.882Z,12.19
2019-04-11T00:54:33.218Z,12.19
2019-04-11T00:57:06.473Z,12.22
2019-04-11T00:59:38.529Z,12.24
2019-04-11T01:02:11.409Z,12.21
2019-04-11T01:04:43.573Z,12.20
2019-04-11T01:07:16.474Z,12.20
2019-04-11T01:09:48.625Z,12.19
2019-04-11T01:12:21.006Z,12.16
2019-04-11T01:14:53.174Z,12.15
2019-04-11T01:17:25.396Z,12.12
2019-04-11T01:19:57.423Z,12.08
2019-04-11T01:22:29.872Z,12.06
2019-04-11T01:25:01.772Z,12.04
2019-04-11T01:27:34.180Z,12.05
2019-04-11T01:30:10.072Z,12.04
2019-04-11T01:32:42.373Z,12.02
2019-04-11T01:35:15.157Z,11.98
2019-04-11T01:37:48.094Z,11.96
2019-04-11T01:40:19.891Z,11.95
2019-04-11T01:42:52.055Z,11.90
2019-04-11T01:45:25.374Z,11.88
2019-04-11T01:47:59.459Z,11.86
2019-04-11T01:50:32.911Z,11.84
2019-04-11T01:53:05.043Z,11.82
2019-04-11T01:55:37.102Z,11.81
2019-04-11T01:58:09.168Z,11.78
2019-04-11T02:00:49.041Z,11.75
2019-04-11T02:03:25.586Z,11.76
2019-04-11T02:05:57.560Z,11.75
2019-04-11T02:08:29.518Z,11.74
2019-04-11T02:11:01.449Z,11.74
2019-04-11T02:13:34.246Z,11.73
2019-04-11T02:16:06.937Z,11.70
2019-04-11T02:18:39.390Z,11.66
2019-04-11T02:21:11.544Z,11.64
2019-04-11T02:23:57.501Z,11.65
2019-04-11T02:26:31.471Z,11.63
2019-04-11T02:29:03.523Z,11.62
2019-04-11T02:31:36.789Z,11.63
2019-04-11T02:34:11.219Z,11.60
2019-04-11T02:36:42.997Z,11.58
2019-04-11T02:39:19.266Z,11.56
2019-04-11T02:41:50.620Z,11.54
2019-04-11T02:44:46.043Z,11.53
2019-04-11T02:47:01.757Z,11.52
2019-04-11T02:49:30.977Z,11.52
2019-04-11T02:52:02.929Z,11.51
2019-04-11T02:54:36.666Z,11.53
2019-04-11T02:57:09.964Z,11.52
2019-04-11T02:59:44.439Z,11.51
2019-04-11T03:02:19.022Z,11.49
2019-04-11T03:04:50.926Z,11.49
2019-04-11T03:07:22.789Z,11.47
2019-04-11T03:09:56.750Z,11.47
2019-04-11T03:12:29.717Z,11.46
2019-04-11T03:15:14.388Z,11.46
2019-04-11T03:17:42.205Z,11.49
2019-04-11T03:20:19.711Z,11.49
2019-04-11T03:22:44.763Z,11.50
2019-04-11T03:25:17.755Z,11.51
2019-04-11T03:27:51.808Z,11.50
2019-04-11T03:30:40.653Z,11.48
2019-04-11T03:38:40.085Z,11.48
2019-04-11T03:41:08.774Z,11.47
2019-04-11T03:43:34.515Z,11.48
2019-04-11T03:46:18.009Z,11.49
2019-04-11T03:48:43.748Z,11.51
2019-04-11T03:51:04.798Z,11.53
2019-04-11T03:53:37.359Z,11.55
2019-04-11T03:56:09.758Z,11.59
2019-04-11T03:58:43.595Z,11.63
2019-04-11T04:01:18.183Z,11.65
2019-04-11T04:03:53.943Z,11.67
2019-04-11T04:06:28.575Z,11.71
2019-04-11T04:09:02.744Z,11.75
2019-04-11T04:11:36.274Z,11.81
2019-04-11T04:14:10.452Z,11.85
2019-04-11T04:16:48.266Z,11.91
2019-04-11T04:19:20.557Z,11.97
2019-04-11T04:22:00.824Z,12.00
2019-04-11T04:24:39.072Z,11.99
2019-04-11T04:27:10.102Z,11.97
2019-04-11T04:29:46.772Z,11.95
2019-04-11T04:32:18.527Z,11.92
2019-04-11T04:34:50.814Z,11.91
2019-04-11T04:41:30.193Z,11.86
2019-04-11T04:43:54.819Z,11.89
2019-04-11T04:46:45.330Z,11.92
2019-04-11T04:49:02.324Z,11.94
2019-04-11T04:51:35.163Z,11.98
2019-04-11T04:54:08.122Z,12.01
2019-04-11T04:56:41.953Z,12.05
2019-04-11T04:59:14.653Z,12.10
2019-04-11T05:01:48.320Z,12.15
2019-04-11T05:04:21.040Z,12.18
2019-04-11T05:06:54.959Z,12.25
2019-04-11T05:09:26.874Z,12.34
2019-04-11T05:11:58.957Z,12.40
2019-04-11T05:14:31.673Z,12.48
2019-04-11T05:17:03.498Z,12.59
2019-04-11T05:19:35.364Z,12.72
2019-04-11T05:22:08.491Z,12.84
2019-04-11T05:24:41.049Z,12.98
2019-04-11T05:27:12.920Z,13.10
2019-04-11T05:29:45.936Z,13.27
2019-04-11T05:32:17.833Z,13.39
2019-04-11T05:34:49.704Z,13.47
2019-04-11T05:37:22.735Z,13.56
2019-04-11T05:39:54.576Z,13.54
2019-04-11T05:42:27.400Z,13.50
2019-04-11T05:44:59.310Z,13.52
2019-04-11T05:47:31.709Z,13.53
2019-04-11T05:50:12.912Z,13.55
2019-04-11T05:52:42.172Z,13.51
2019-04-11T05:55:15.515Z,13.54
2019-04-11T05:57:48.222Z,13.58
2019-04-11T06:00:21.739Z,13.67
2019-04-11T06:02:55.280Z,13.76
2019-04-11T06:05:47.400Z,13.91
2019-04-11T06:08:25.056Z,14.07
2019-04-11T06:10:54.696Z,14.30
2019-04-11T06:13:30.542Z,14.51
2019-04-11T06:16:04.626Z,14.68
2019-04-11T06:18:41.884Z,14.79
2019-04-11T06:21:13.197Z,14.79
2019-04-11T06:23:47.704Z,14.77
2019-04-11T06:26:38.676Z,14.77
2019-04-11T06:29:21.293Z,14.73
2019-04-11T06:31:49.720Z,14.85
2019-04-11T06:34:24.060Z,15.03
2019-04-11T06:36:59.343Z,15.20
2019-04-11T06:39:35.962Z,15.35
2019-04-11T06:42:27.578Z,15.59
2019-04-11T06:45:02.132Z,15.86
2019-04-11T06:47:37.320Z,16.06
2019-04-11T06:50:20.476Z,16.31
2019-04-11T06:52:53.054Z,16.51
2019-04-11T06:55:42.660Z,16.62
2019-04-11T06:58:16.054Z,16.76
2019-04-11T07:00:50.088Z,16.79
2019-04-11T07:03:25.958Z,16.92
2019-04-11T07:05:57.282Z,16.96
2019-04-11T07:08:30.645Z,16.95
2019-04-11T07:11:20.529Z,17.05
2019-04-11T07:14:01.904Z,17.06
2019-04-11T07:16:36.171Z,17.09
2019-04-11T07:19:09.646Z,17.08
2019-04-11T07:21:42.025Z,17.03
2019-04-11T07:24:30.970Z,16.92
2019-04-11T07:27:04.651Z,16.77
2019-04-11T07:29:46.974Z,16.79
2019-04-11T07:32:20.193Z,16.74
2019-04-11T07:35:00.011Z,16.76
2019-04-11T07:37:36.748Z,16.78
2019-04-11T07:40:15.306Z,16.77
2019-04-11T07:42:59.433Z,16.87
2019-04-11T07:45:49.134Z,16.92
2019-04-11T07:48:22.726Z,17.02
2019-04-11T07:50:55.406Z,17.13
2019-04-11T07:53:28.542Z,17.21
2019-04-11T07:56:02.051Z,17.38
2019-04-11T10:19:38.450Z,20.10
2019-04-11T10:22:13.011Z,19.97
2019-04-11T10:24:46.474Z,19.95
2019-04-11T10:27:36.364Z,20.00
2019-04-11T10:30:27.479Z,20.01
2019-04-11T10:33:07.223Z,20.07
2019-04-11T10:35:40.819Z,20.04
2019-04-11T10:38:16.224Z,20.03
2019-04-11T10:40:52.462Z,19.95
2019-04-11T10:43:24.646Z,19.94
2019-04-11T10:45:58.807Z,19.92
2019-04-11T10:48:37.769Z,19.98
2019-04-11T10:51:07.037Z,20.01
2019-04-11T10:53:39.645Z,19.96
2019-04-11T10:56:16.018Z,19.88
2019-04-11T10:58:49.708Z,20.04
2019-04-11T11:01:40.186Z,20.28
2019-04-11T11:04:13.803Z,20.37
2019-04-11T11:06:48.383Z,20.33
2019-04-11T11:09:39.940Z,20.34
2019-04-11T11:12:31.085Z,20.68
2019-04-11T11:15:04.661Z,20.84
2019-04-11T11:18:05.569Z,20.91
2019-04-11T11:20:38.591Z,21.00
2019-04-11T11:23:24.766Z,21.09
2019-04-11T11:26:07.400Z,21.28
2019-04-11T11:28:46.695Z,21.44
2019-04-11T11:31:24.345Z,21.62
2019-04-11T11:33:58.850Z,21.83
2019-04-11T11:36:48.475Z,21.90
2019-04-11T11:39:22.700Z,21.73
2019-04-11T11:42:12.564Z,21.75
2019-04-11T11:44:53.141Z,21.88
2019-04-11T11:47:43.201Z,21.81
2019-04-11T11:50:26.773Z,21.54
2019-04-11T11:53:12.687Z,21.35
2019-04-11T11:55:45.305Z,21.21
2019-04-11T11:58:37.862Z,21.26
2019-04-11T12:01:09.946Z,21.23
2019-04-11T12:03:49.186Z,21.13
2019-04-11T12:06:23.858Z,21.24
2019-04-11T12:09:00.488Z,21.29
2019-04-11T12:11:35.727Z,21.21
2019-04-11T12:14:09.708Z,20.99
2019-04-11T12:16:42.460Z,20.90
2019-04-11T12:19:22.303Z,20.80
2019-04-11T12:21:56.000Z,20.74
2019-04-11T12:24:29.247Z,21.02
2019-04-11T12:27:04.404Z,21.29
2019-04-11T12:29:51.643Z,21.41
2019-04-11T12:32:28.439Z,21.50
2019-04-11T12:35:06.096Z,21.75
2019-04-11T12:37:39.487Z,21.98
2019-04-11T12:40:20.685Z,21.88
2019-04-11T12:42:52.856Z,21.67
2019-04-11T12:45:35.358Z,21.54
2019-04-11T12:48:07.417Z,21.64
2019-04-11T12:50:59.368Z,21.87
2019-04-11T12:53:31.421Z,22.10
2019-04-11T12:56:05.034Z,22.34
2019-04-11T12:59:24.307Z,22.37
2019-04-11T13:02:00.476Z,22.33
2019-04-11T13:04:32.438Z,22.28
2019-04-11T13:07:09.110Z,22.33
2019-04-11T13:09:43.854Z,22.34
2019-04-11T13:12:39.149Z,22.37
2019-04-11T13:15:24.121Z,22.39
2019-04-11T13:18:09.836Z,22.41
2019-04-11T13:20:49.549Z,22.33
2019-04-11T13:23:40.670Z,22.27
2019-04-11T13:26:30.529Z,22.20
2019-04-11T13:29:04.265Z,22.01
2019-04-11T13:31:55.975Z,21.90
2019-04-11T13:34:29.564Z,21.85
2019-04-11T13:37:19.467Z,21.72
2019-04-11T13:40:09.555Z,21.69
2019-04-11T13:43:02.520Z,21.63
2019-04-11T13:45:45.945Z,21.55
2019-04-11T13:48:35.710Z,21.48
2019-04-11T13:51:21.107Z,21.34
2019-04-11T13:54:11.093Z,21.32
2019-04-11T13:57:02.188Z,21.26
2019-04-11T13:59:35.790Z,21.16
2019-04-11T14:02:11.970Z,21.15
2019-04-11T14:04:57.864Z,21.13
2019-04-11T14:07:34.219Z,21.10
2019-04-11T14:10:08.445Z,21.26
2019-04-11T14:12:40.825Z,21.60
2019-04-11T14:15:17.388Z,21.91
2019-04-11T14:18:07.057Z,21.89
2019-04-11T14:20:59.104Z,21.82
2019-04-11T14:23:50.612Z,21.72
2019-04-11T14:26:24.316Z,21.54
2019-04-11T14:28:56.810Z,21.28
2019-04-11T14:31:39.124Z,21.10
2019-04-11T14:34:29.356Z,20.95
2019-04-11T14:37:21.144Z,20.78
2019-04-11T14:39:54.850Z,20.63
2019-04-11T14:42:46.233Z,20.58
2019-04-11T14:45:36.614Z,20.54
2019-04-11T14:48:27.066Z,20.53
2019-04-11T14:51:03.731Z,20.52
2019-04-11T14:53:53.635Z,20.51
2019-04-11T14:56:30.298Z,20.52
2019-04-11T14:59:23.977Z,20.50
2019-04-11T15:02:12.190Z,20.46
2019-04-11T15:04:48.984Z,20.41
2019-04-11T15:07:21.377Z,20.38
2019-04-11T15:10:10.953Z,20.31
2019-04-11T15:12:43.117Z,20.25
2019-04-11T15:15:25.026Z,20.23
2019-04-11T15:17:58.828Z,20.19
2019-04-11T15:20:54.183Z,20.12
2019-04-11T15:23:18.625Z,20.06
2019-04-11T15:26:08.811Z,19.97
2019-04-11T15:28:48.453Z,19.88
2019-04-11T15:31:39.159Z,19.76
2019-04-11T15:34:12.450Z,19.62
2019-04-11T15:36:52.341Z,19.53
2019-04-11T15:39:44.334Z,19.54
2019-04-11T15:42:15.977Z,19.40
2019-04-11T15:45:04.770Z,19.25
2019-04-11T15:47:38.378Z,19.17
2019-04-11T15:50:30.703Z,19.08
2019-04-11T15:53:06.607Z,19.07
2019-04-11T15:55:55.946Z,19.09
2019-04-11T15:58:29.534Z,18.96
2019-04-11T16:01:05.999Z,18.59
2019-04-11T16:03:37.967Z,18.27
2019-04-11T16:06:27.135Z,17.96
2019-04-11T16:08:59.731Z,17.73
2019-04-11T16:11:33.220Z,17.47
2019-04-11T16:14:06.834Z,17.27
2019-04-11T16:16:46.587Z,17.08
2019-04-11T16:19:26.442Z,16.93
2019-04-11T16:22:02.717Z,16.77
2019-04-11T16:24:35.572Z,16.61
2019-04-11T16:27:17.796Z,16.43
2019-04-11T16:29:54.260Z,16.26
2019-04-11T16:32:27.749Z,16.09
2019-04-11T16:35:08.429Z,15.93
2019-04-11T16:37:41.843Z,15.77
2019-04-11T16:40:18.199Z,15.61
2019-04-11T16:42:53.576Z,15.46
2019-04-11T16:45:42.688Z,15.32
2019-04-11T16:48:14.680Z,15.20
2019-04-11T16:50:46.638Z,15.05
2019-04-11T16:53:21.857Z,14.92
2019-04-11T16:55:55.521Z,14.79
2019-04-11T16:58:27.545Z,14.67
2019-04-11T17:00:59.443Z,14.56
2019-04-11T17:03:31.472Z,14.46
2019-04-11T17:06:07.782Z,14.38
2019-04-11T17:08:51.693Z,14.30
2019-04-11T17:11:26.724Z,14.23
2019-04-11T17:13:57.905Z,14.19
2019-04-11T17:16:30.838Z,14.09
2019-04-11T17:19:05.473Z,14.00
2019-04-11T17:21:43.000Z,13.89
2019-04-11T17:24:10.751Z,13.78
2019-04-11T17:26:42.923Z,13.69
2019-04-11T17:29:14.992Z,13.59
2019-04-11T17:31:47.166Z,13.49
2019-04-11T17:34:20.551Z,13.40
2019-04-11T17:36:52.504Z,13.28
2019-04-11T17:39:24.675Z,13.18
2019-04-11T17:41:56.657Z,13.07
2019-04-11T17:44:28.708Z,12.99
2019-04-11T17:47:00.976Z,12.93
2019-04-11T17:49:33.066Z,12.86
2019-04-11T17:52:07.027Z,12.82
2019-04-11T17:54:43.345Z,12.76
2019-04-11T17:57:15.213Z,12.67
2019-04-11T17:59:50.642Z,12.62
2019-04-11T18:02:22.821Z,12.53
2019-04-11T18:04:54.983Z,12.46
2019-04-11T18:07:26.856Z,12.37
2019-04-11T18:09:58.710Z,12.29
2019-04-11T18:12:30.676Z,12.22
2019-04-11T18:15:03.012Z,12.18
2019-04-11T18:17:36.223Z,12.17
2019-04-11T18:20:10.154Z,12.15
2019-04-11T18:22:45.793Z,12.16
2019-04-11T18:25:15.725Z,12.14
2019-04-11T18:27:47.467Z,12.11
2019-04-11T18:30:23.261Z,12.09
2019-04-11T18:32:54.473Z,12.05
2019-04-11T18:35:26.506Z,12.02
2019-04-11T18:38:01.755Z,11.97
2019-04-11T18:40:33.235Z,11.92
2019-04-11T18:43:05.298Z,11.88
2019-04-11T18:45:37.363Z,11.80
2019-04-11T18:48:09.228Z,11.70
2019-04-11T18:50:42.067Z,11.61
2019-04-11T18:53:21.951Z,11.51
2019-04-11T18:55:53.640Z,11.40
2019-04-11T18:58:25.597Z,11.32
2019-04-11T19:00:57.866Z,11.24
2019-04-11T19:03:35.986Z,11.18
2019-04-11T19:06:03.404Z,11.14
2019-04-11T19:08:36.319Z,11.06
2019-04-11T19:11:08.382Z,11.00
2019-04-11T19:13:40.218Z,10.92
2019-04-11T19:16:13.806Z,10.84
2019-04-11T19:18:47.660Z,10.78
2019-04-11T19:21:21.091Z,10.70
2019-04-11T19:23:53.350Z,10.63
2019-04-11T19:26:25.368Z,10.56
2019-04-11T19:28:57.121Z,10.49
2019-04-11T19:31:29.312Z,10.46
2019-04-11T19:34:04.396Z,10.41
2019-04-11T19:36:35.129Z,10.35
2019-04-11T19:39:13.549Z,10.30
2019-04-11T19:41:42.903Z,10.22
2019-04-11T19:44:16.859Z,10.18
2019-04-11T19:46:50.981Z,10.14
2019-04-11T19:49:24.210Z,10.11
2019-04-11T19:51:58.653Z,10.06
2019-04-11T19:54:32.805Z,10.01
2019-04-11T19:57:07.711Z,9.95
2019-04-11T19:59:39.454Z,9.89
2019-04-11T20:02:11.723Z,9.83
2019-04-11T20:04:43.484Z,9.77
2019-04-11T20:07:15.399Z,9.73
2019-04-11T20:09:47.305Z,9.64
2019-04-11T20:12:20.301Z,9.52
2019-04-11T20:14:52.460Z,9.46
2019-04-11T20:17:24.427Z,9.41
2019-04-11T20:20:01.579Z,9.35
2019-04-11T20:22:30.192Z,9.29
2019-04-11T20:25:02.834Z,9.23
2019-04-11T20:27:35.158Z,9.15
2019-04-11T20:30:07.847Z,9.09
2019-04-11T20:32:40.041Z,9.07
2019-04-11T20:35:11.925Z,9.04
2019-04-11T20:37:44.720Z,9.02
2019-04-11T20:40:18.150Z,9.00
2019-04-11T20:42:54.051Z,8.99
2019-04-11T20:45:28.483Z,8.94
2019-04-11T20:48:00.905Z,8.84
2019-04-11T20:50:32.737Z,8.78
2019-04-11T20:53:12.626Z,8.72
2019-04-11T20:55:39.266Z,8.65
2019-04-11T20:58:11.714Z,8.62
2019-04-11T21:00:50.091Z,8.57
2019-04-11T21:03:17.098Z,8.52
2019-04-11T21:05:48.726Z,8.48
2019-04-11T21:08:20.392Z,8.43
2019-04-11T21:10:52.234Z,8.38
2019-04-11T21:13:24.120Z,8.34
2019-04-11T21:15:56.655Z,8.30
2019-04-11T21:18:28.536Z,8.27
2019-04-11T21:21:00.851Z,8.24
2019-04-11T21:23:36.714Z,8.22
2019-04-11T21:26:09.048Z,8.21
2019-04-11T21:28:40.991Z,8.13
2019-04-11T21:31:13.183Z,8.10
2019-04-11T21:33:45.147Z,8.08
2019-04-11T21:36:18.331Z,8.04
2019-04-11T21:38:50.509Z,8.00
2019-04-11T21:41:23.799Z,7.94
2019-04-11T21:43:55.443Z,7.87
2019-04-11T21:46:27.955Z,7.77
2019-04-11T21:48:59.819Z,7.75
2019-04-11T21:51:31.849Z,7.71
2019-04-11T21:54:03.811Z,7.69
2019-04-11T21:56:35.792Z,7.66
2019-04-11T21:59:07.969Z,7.64
2019-04-11T22:01:43.002Z,7.60
2019-04-11T22:04:14.861Z,7.54
2019-04-11T22:06:47.206Z,7.48
2019-04-11T22:09:19.188Z,7.44
2019-04-11T22:11:50.931Z,7.42
2019-04-11T22:14:23.442Z,7.38
2019-04-11T22:16:56.738Z,7.35
2019-04-11T22:19:29.239Z,7.34
2019-04-11T22:22:02.266Z,7.32
2019-04-11T22:24:34.382Z,7.30
2019-04-11T22:27:06.430Z,7.31
2019-04-11T22:29:39.111Z,7.30
2019-04-11T22:32:11.268Z,7.28
2019-04-11T22:34:44.582Z,7.30
2019-04-11T22:37:16.934Z,7.28
2019-04-11T22:39:48.992Z,7.27
2019-04-11T22:42:21.071Z,7.24
2019-04-11T22:44:52.815Z,7.21
2019-04-11T22:47:24.802Z,7.17
2019-04-11T22:49:56.864Z,7.15
2019-04-11T22:52:29.262Z,7.10
2019-04-11T22:55:01.211Z,7.07
2019-04-11T22:57:33.371Z,7.06
2019-04-11T23:00:08.589Z,7.05
2019-04-11T23:02:47.420Z,7.02
2019-04-11T23:05:19.797Z,7.00
2019-04-11T23:07:51.790Z,6.98
2019-04-11T23:10:23.827Z,6.97
2019-04-11T23:12:55.992Z,6.97
2019-04-11T23:15:27.766Z,6.96
2019-04-11T23:17:59.732Z,6.89
2019-04-11T23:20:31.694Z,6.88
2019-04-11T23:23:03.564Z,6.84
2019-04-11T23:25:35.418Z,6.79
2019-04-11T23:28:07.509Z,6.76
2019-04-11T23:30:39.749Z,6.73
2019-04-11T23:33:11.522Z,6.65
2019-04-11T23:35:43.463Z,6.61
2019-04-11T23:38:15.278Z,6.58
2019-04-11T23:40:48.897Z,6.57
2019-04-11T23:43:20.780Z,6.52
2019-04-11T23:45:53.180Z,6.49
2019-04-11T23:48:24.814Z,6.44
2019-04-11T23:50:58.337Z,6.37
2019-04-11T23:53:29.906Z,6.37
2019-04-11T23:56:01.733Z,6.36
2019-04-11T23:58:33.802Z,6.34
